sensor_id;sensor_type;location;lat;lon;timestamp;P1;durP1;ratioP1;P2;durP2;ratioP2
32319;SDS011;19080;51.750;5.888;2023-03-01T00:01:16;11.05;;;7.70;;
32319;SDS011;19080;51.750;5.888;2023-03-01T00:03:45;10.13;;;6.25;;
32319;SDS011;19080;51.750;5.888;2023-03-01T00:06:12;9.23;;;6.30;;
32319;SDS011;19080;51.750;5.888;2023-03-01T00:08:39;7.70;;;6.32;;
32319;SDS011;19080;51.750;5.888;2023-03-01T00:13:40;7.82;;;6.30;;
32319;SDS011;19080;51.750;5.888;2023-03-01T00:16:08;9.30;;;6.32;;
32319;SDS011;19080;51.750;5.888;2023-03-01T00:18:37;9.07;;;5.97;;
32319;SDS011;19080;51.750;5.888;2023-03-01T00:21:04;8.35;;;6.75;;
32319;SDS011;19080;51.750;5.888;2023-03-01T00:23:31;9.68;;;6.40;;
32319;SDS011;19080;51.750;5.888;2023-03-01T00:26:00;9.88;;;6.68;;
32319;SDS011;19080;51.750;5.888;2023-03-01T00:28:27;9.55;;;6.60;;
32319;SDS011;19080;51.750;5.888;2023-03-01T00:30:54;9.30;;;7.47;;
32319;SDS011;19080;51.750;5.888;2023-03-01T00:33:20;9.60;;;6.50;;
32319;SDS011;19080;51.750;5.888;2023-03-01T00:35:47;8.32;;;6.45;;
32319;SDS011;19080;51.750;5.888;2023-03-01T00:38:14;7.93;;;6.28;;
32319;SDS011;19080;51.750;5.888;2023-03-01T00:40:40;10.50;;;7.15;;
32319;SDS011;19080;51.750;5.888;2023-03-01T00:43:07;9.00;;;6.50;;
32319;SDS011;19080;51.750;5.888;2023-03-01T00:45:34;8.30;;;5.95;;
32319;SDS011;19080;51.750;5.888;2023-03-01T00:48:01;10.23;;;6.07;;
32319;SDS011;19080;51.750;5.888;2023-03-01T00:50:27;10.27;;;6.40;;
32319;SDS011;19080;51.750;5.888;2023-03-01T00:52:54;8.80;;;6.40;;
32319;SDS011;19080;51.750;5.888;2023-03-01T00:55:22;7.88;;;6.20;;
32319;SDS011;19080;51.750;5.888;2023-03-01T00:57:50;10.70;;;6.32;;
32319;SDS011;19080;51.750;5.888;2023-03-01T01:00:16;11.20;;;6.90;;
32319;SDS011;19080;51.750;5.888;2023-03-01T01:02:46;8.05;;;5.57;;
32319;SDS011;19080;51.750;5.888;2023-03-01T01:05:14;10.18;;;6.57;;
32319;SDS011;19080;51.750;5.888;2023-03-01T01:07:40;12.00;;;7.13;;
32319;SDS011;19080;51.750;5.888;2023-03-01T01:10:07;14.65;;;8.48;;
32319;SDS011;19080;51.750;5.888;2023-03-01T01:12:34;16.75;;;8.48;;
32319;SDS011;19080;51.750;5.888;2023-03-01T01:15:01;10.98;;;6.60;;
32319;SDS011;19080;51.750;5.888;2023-03-01T01:17:28;10.32;;;6.70;;
32319;SDS011;19080;51.750;5.888;2023-03-01T01:19:55;11.05;;;6.85;;
32319;SDS011;19080;51.750;5.888;2023-03-01T01:22:22;7.82;;;6.38;;
32319;SDS011;19080;51.750;5.888;2023-03-01T01:24:49;9.40;;;6.35;;
32319;SDS011;19080;51.750;5.888;2023-03-01T01:27:15;9.98;;;6.95;;
32319;SDS011;19080;51.750;5.888;2023-03-01T01:29:42;9.48;;;6.60;;
32319;SDS011;19080;51.750;5.888;2023-03-01T01:32:08;11.20;;;6.78;;
32319;SDS011;19080;51.750;5.888;2023-03-01T01:34:35;8.93;;;6.35;;
32319;SDS011;19080;51.750;5.888;2023-03-01T01:37:02;23.75;;;10.70;;
32319;SDS011;19080;51.750;5.888;2023-03-01T01:39:29;13.40;;;7.60;;
32319;SDS011;19080;51.750;5.888;2023-03-01T01:41:55;7.80;;;6.20;;
32319;SDS011;19080;51.750;5.888;2023-03-01T01:44:24;8.40;;;5.95;;
32319;SDS011;19080;51.750;5.888;2023-03-01T01:47:00;9.05;;;6.80;;
32319;SDS011;19080;51.750;5.888;2023-03-01T01:54:53;11.45;;;7.50;;
32319;SDS011;19080;51.750;5.888;2023-03-01T01:57:22;9.88;;;6.95;;
32319;SDS011;19080;51.750;5.888;2023-03-01T01:59:53;9.50;;;6.55;;
32319;SDS011;19080;51.750;5.888;2023-03-01T02:02:24;7.95;;;5.68;;
32319;SDS011;19080;51.750;5.888;2023-03-01T02:04:53;9.38;;;6.38;;
32319;SDS011;19080;51.750;5.888;2023-03-01T02:07:30;12.27;;;7.15;;
32319;SDS011;19080;51.750;5.888;2023-03-01T02:09:57;12.18;;;8.00;;
32319;SDS011;19080;51.750;5.888;2023-03-01T02:12:24;14.55;;;8.60;;
32319;SDS011;19080;51.750;5.888;2023-03-01T02:14:52;11.90;;;8.52;;
32319;SDS011;19080;51.750;5.888;2023-03-01T02:17:18;13.00;;;7.85;;
32319;SDS011;19080;51.750;5.888;2023-03-01T02:22:35;13.00;;;7.70;;
32319;SDS011;19080;51.750;5.888;2023-03-01T02:27:57;8.80;;;6.47;;
32319;SDS011;19080;51.750;5.888;2023-03-01T02:30:34;9.82;;;7.32;;
32319;SDS011;19080;51.750;5.888;2023-03-01T02:33:02;9.57;;;6.32;;
32319;SDS011;19080;51.750;5.888;2023-03-01T02:35:30;11.20;;;6.93;;
32319;SDS011;19080;51.750;5.888;2023-03-01T02:38:01;10.40;;;7.45;;
32319;SDS011;19080;51.750;5.888;2023-03-01T02:40:29;11.70;;;8.13;;
32319;SDS011;19080;51.750;5.888;2023-03-01T02:42:58;13.95;;;7.80;;
32319;SDS011;19080;51.750;5.888;2023-03-01T02:45:25;12.38;;;8.43;;
32319;SDS011;19080;51.750;5.888;2023-03-01T02:47:53;15.82;;;8.15;;
32319;SDS011;19080;51.750;5.888;2023-03-01T02:55:31;13.30;;;7.85;;
32319;SDS011;19080;51.750;5.888;2023-03-01T02:57:58;10.93;;;7.70;;
32319;SDS011;19080;51.750;5.888;2023-03-01T03:00:32;10.30;;;6.95;;
32319;SDS011;19080;51.750;5.888;2023-03-01T03:03:06;8.75;;;6.63;;
32319;SDS011;19080;51.750;5.888;2023-03-01T03:05:33;8.55;;;7.22;;
32319;SDS011;19080;51.750;5.888;2023-03-01T03:08:01;12.15;;;7.22;;
32319;SDS011;19080;51.750;5.888;2023-03-01T03:10:35;13.10;;;8.18;;
32319;SDS011;19080;51.750;5.888;2023-03-01T03:13:04;9.73;;;7.07;;
32319;SDS011;19080;51.750;5.888;2023-03-01T03:15:33;12.25;;;8.00;;
32319;SDS011;19080;51.750;5.888;2023-03-01T03:18:07;11.82;;;7.63;;
32319;SDS011;19080;51.750;5.888;2023-03-01T03:20:36;9.82;;;7.60;;
32319;SDS011;19080;51.750;5.888;2023-03-01T03:23:04;14.38;;;8.13;;
32319;SDS011;19080;51.750;5.888;2023-03-01T03:25:30;8.85;;;7.03;;
32319;SDS011;19080;51.750;5.888;2023-03-01T03:27:57;10.75;;;7.30;;
32319;SDS011;19080;51.750;5.888;2023-03-01T03:30:25;9.68;;;7.28;;
32319;SDS011;19080;51.750;5.888;2023-03-01T03:32:55;8.68;;;6.75;;
32319;SDS011;19080;51.750;5.888;2023-03-01T03:35:24;10.02;;;6.78;;
32319;SDS011;19080;51.750;5.888;2023-03-01T03:37:55;9.68;;;7.03;;
32319;SDS011;19080;51.750;5.888;2023-03-01T03:40:33;10.40;;;7.90;;
32319;SDS011;19080;51.750;5.888;2023-03-01T03:43:05;13.77;;;8.00;;
32319;SDS011;19080;51.750;5.888;2023-03-01T03:45:36;10.45;;;7.50;;
32319;SDS011;19080;51.750;5.888;2023-03-01T03:48:03;12.07;;;8.35;;
32319;SDS011;19080;51.750;5.888;2023-03-01T03:50:32;11.40;;;8.15;;
32319;SDS011;19080;51.750;5.888;2023-03-01T03:53:00;13.15;;;8.43;;
32319;SDS011;19080;51.750;5.888;2023-03-01T03:55:27;10.23;;;7.43;;
32319;SDS011;19080;51.750;5.888;2023-03-01T03:57:57;11.23;;;8.65;;
32319;SDS011;19080;51.750;5.888;2023-03-01T04:00:27;15.48;;;7.65;;
32319;SDS011;19080;51.750;5.888;2023-03-01T04:02:54;11.07;;;8.10;;
32319;SDS011;19080;51.750;5.888;2023-03-01T04:05:23;11.23;;;7.85;;
32319;SDS011;19080;51.750;5.888;2023-03-01T04:07:51;12.60;;;9.02;;
32319;SDS011;19080;51.750;5.888;2023-03-01T04:10:30;12.10;;;8.02;;
32319;SDS011;19080;51.750;5.888;2023-03-01T04:12:58;12.35;;;8.05;;
32319;SDS011;19080;51.750;5.888;2023-03-01T04:15:25;17.42;;;8.90;;
32319;SDS011;19080;51.750;5.888;2023-03-01T04:17:53;13.68;;;8.38;;
32319;SDS011;19080;51.750;5.888;2023-03-01T04:20:25;11.88;;;8.48;;
32319;SDS011;19080;51.750;5.888;2023-03-01T04:23:06;11.90;;;9.25;;
32319;SDS011;19080;51.750;5.888;2023-03-01T04:25:45;12.77;;;9.18;;
32319;SDS011;19080;51.750;5.888;2023-03-01T04:28:26;14.70;;;9.25;;
32319;SDS011;19080;51.750;5.888;2023-03-01T04:31:04;12.98;;;8.32;;
32319;SDS011;19080;51.750;5.888;2023-03-01T04:33:40;10.95;;;7.95;;
32319;SDS011;19080;51.750;5.888;2023-03-01T04:36:15;11.68;;;8.90;;
32319;SDS011;19080;51.750;5.888;2023-03-01T04:38:43;11.70;;;8.63;;
32319;SDS011;19080;51.750;5.888;2023-03-01T04:41:14;10.95;;;8.27;;
32319;SDS011;19080;51.750;5.888;2023-03-01T04:43:43;13.02;;;8.15;;
32319;SDS011;19080;51.750;5.888;2023-03-01T04:46:13;13.15;;;9.25;;
32319;SDS011;19080;51.750;5.888;2023-03-01T04:48:42;11.60;;;8.30;;
32319;SDS011;19080;51.750;5.888;2023-03-01T04:51:10;14.30;;;8.80;;
32319;SDS011;19080;51.750;5.888;2023-03-01T04:53:40;12.60;;;8.93;;
32319;SDS011;19080;51.750;5.888;2023-03-01T04:56:07;11.90;;;7.97;;
32319;SDS011;19080;51.750;5.888;2023-03-01T04:58:34;14.70;;;9.25;;
32319;SDS011;19080;51.750;5.888;2023-03-01T05:01:00;13.98;;;9.30;;
32319;SDS011;19080;51.750;5.888;2023-03-01T05:03:27;13.85;;;10.13;;
32319;SDS011;19080;51.750;5.888;2023-03-01T05:05:54;13.50;;;9.38;;
32319;SDS011;19080;51.750;5.888;2023-03-01T05:08:25;11.88;;;9.15;;
32319;SDS011;19080;51.750;5.888;2023-03-01T05:10:53;15.70;;;10.23;;
32319;SDS011;19080;51.750;5.888;2023-03-01T05:13:20;14.20;;;9.07;;
32319;SDS011;19080;51.750;5.888;2023-03-01T05:15:49;11.35;;;9.18;;
32319;SDS011;19080;51.750;5.888;2023-03-01T05:18:21;13.98;;;9.77;;
32319;SDS011;19080;51.750;5.888;2023-03-01T05:20:52;10.60;;;8.52;;
32319;SDS011;19080;51.750;5.888;2023-03-01T05:23:22;13.52;;;10.93;;
32319;SDS011;19080;51.750;5.888;2023-03-01T05:25:49;14.30;;;10.05;;
32319;SDS011;19080;51.750;5.888;2023-03-01T05:28:19;11.90;;;8.60;;
32319;SDS011;19080;51.750;5.888;2023-03-01T05:30:46;10.70;;;8.32;;
32319;SDS011;19080;51.750;5.888;2023-03-01T05:33:13;12.73;;;9.05;;
32319;SDS011;19080;51.750;5.888;2023-03-01T05:35:41;13.82;;;10.00;;
32319;SDS011;19080;51.750;5.888;2023-03-01T05:38:09;13.68;;;10.15;;
32319;SDS011;19080;51.750;5.888;2023-03-01T05:40:43;14.23;;;9.73;;
32319;SDS011;19080;51.750;5.888;2023-03-01T05:43:11;14.50;;;9.15;;
32319;SDS011;19080;51.750;5.888;2023-03-01T05:45:40;13.73;;;8.43;;
32319;SDS011;19080;51.750;5.888;2023-03-01T05:48:07;15.35;;;9.52;;
32319;SDS011;19080;51.750;5.888;2023-03-01T05:50:36;13.13;;;9.38;;
32319;SDS011;19080;51.750;5.888;2023-03-01T05:55:52;12.27;;;8.80;;
32319;SDS011;19080;51.750;5.888;2023-03-01T05:58:19;12.68;;;9.35;;
32319;SDS011;19080;51.750;5.888;2023-03-01T06:00:46;14.48;;;10.40;;
32319;SDS011;19080;51.750;5.888;2023-03-01T06:03:15;15.52;;;9.80;;
32319;SDS011;19080;51.750;5.888;2023-03-01T06:05:42;12.95;;;9.55;;
32319;SDS011;19080;51.750;5.888;2023-03-01T06:08:10;13.32;;;9.63;;
32319;SDS011;19080;51.750;5.888;2023-03-01T06:10:37;15.48;;;9.77;;
32319;SDS011;19080;51.750;5.888;2023-03-01T06:13:05;13.25;;;8.75;;
32319;SDS011;19080;51.750;5.888;2023-03-01T06:15:32;14.48;;;8.75;;
32319;SDS011;19080;51.750;5.888;2023-03-01T06:17:58;13.18;;;8.82;;
32319;SDS011;19080;51.750;5.888;2023-03-01T06:20:26;12.40;;;8.38;;
32319;SDS011;19080;51.750;5.888;2023-03-01T06:22:54;12.30;;;8.65;;
32319;SDS011;19080;51.750;5.888;2023-03-01T06:25:22;11.50;;;8.90;;
32319;SDS011;19080;51.750;5.888;2023-03-01T06:27:50;11.93;;;8.55;;
32319;SDS011;19080;51.750;5.888;2023-03-01T06:30:19;14.55;;;8.80;;
32319;SDS011;19080;51.750;5.888;2023-03-01T06:32:46;12.07;;;8.27;;
32319;SDS011;19080;51.750;5.888;2023-03-01T06:35:14;12.60;;;9.02;;
32319;SDS011;19080;51.750;5.888;2023-03-01T06:37:45;10.50;;;7.82;;
32319;SDS011;19080;51.750;5.888;2023-03-01T06:40:13;10.70;;;7.75;;
32319;SDS011;19080;51.750;5.888;2023-03-01T06:42:41;9.65;;;7.50;;
32319;SDS011;19080;51.750;5.888;2023-03-01T06:45:09;10.80;;;7.97;;
32319;SDS011;19080;51.750;5.888;2023-03-01T06:47:36;11.07;;;7.82;;
32319;SDS011;19080;51.750;5.888;2023-03-01T06:50:03;10.40;;;8.13;;
32319;SDS011;19080;51.750;5.888;2023-03-01T06:52:30;15.70;;;9.05;;
32319;SDS011;19080;51.750;5.888;2023-03-01T06:54:57;11.10;;;7.53;;
32319;SDS011;19080;51.750;5.888;2023-03-01T06:57:24;13.95;;;8.57;;
32319;SDS011;19080;51.750;5.888;2023-03-01T06:59:50;10.35;;;7.15;;
32319;SDS011;19080;51.750;5.888;2023-03-01T07:02:17;10.45;;;7.70;;
32319;SDS011;19080;51.750;5.888;2023-03-01T07:04:44;10.60;;;8.30;;
32319;SDS011;19080;51.750;5.888;2023-03-01T07:07:10;11.35;;;7.85;;
32319;SDS011;19080;51.750;5.888;2023-03-01T07:09:37;12.80;;;7.90;;
32319;SDS011;19080;51.750;5.888;2023-03-01T07:12:04;10.88;;;7.75;;
32319;SDS011;19080;51.750;5.888;2023-03-01T07:14:31;11.05;;;7.97;;
32319;SDS011;19080;51.750;5.888;2023-03-01T07:16:58;12.32;;;7.95;;
32319;SDS011;19080;51.750;5.888;2023-03-01T07:19:24;10.82;;;7.78;;
32319;SDS011;19080;51.750;5.888;2023-03-01T07:21:51;13.73;;;8.35;;
32319;SDS011;19080;51.750;5.888;2023-03-01T07:24:18;11.13;;;7.78;;
32319;SDS011;19080;51.750;5.888;2023-03-01T07:26:47;11.75;;;8.40;;
32319;SDS011;19080;51.750;5.888;2023-03-01T07:29:15;11.38;;;7.60;;
32319;SDS011;19080;51.750;5.888;2023-03-01T07:31:42;10.15;;;6.63;;
32319;SDS011;19080;51.750;5.888;2023-03-01T07:34:08;9.15;;;6.28;;
32319;SDS011;19080;51.750;5.888;2023-03-01T07:36:37;8.90;;;6.97;;
32319;SDS011;19080;51.750;5.888;2023-03-01T07:39:04;11.30;;;6.88;;
32319;SDS011;19080;51.750;5.888;2023-03-01T07:41:30;11.13;;;6.63;;
32319;SDS011;19080;51.750;5.888;2023-03-01T07:43:57;7.93;;;6.75;;
32319;SDS011;19080;51.750;5.888;2023-03-01T07:46:23;12.50;;;7.07;;
32319;SDS011;19080;51.750;5.888;2023-03-01T07:48:50;14.23;;;7.30;;
32319;SDS011;19080;51.750;5.888;2023-03-01T07:51:16;8.70;;;6.70;;
32319;SDS011;19080;51.750;5.888;2023-03-01T07:53:46;8.82;;;6.40;;
32319;SDS011;19080;51.750;5.888;2023-03-01T07:56:14;12.05;;;6.53;;
32319;SDS011;19080;51.750;5.888;2023-03-01T07:58:44;9.63;;;7.20;;
32319;SDS011;19080;51.750;5.888;2023-03-01T08:01:12;8.75;;;6.22;;
32319;SDS011;19080;51.750;5.888;2023-03-01T08:03:43;10.05;;;7.10;;
32319;SDS011;19080;51.750;5.888;2023-03-01T08:06:10;9.35;;;7.40;;
32319;SDS011;19080;51.750;5.888;2023-03-01T08:08:39;12.15;;;7.28;;
32319;SDS011;19080;51.750;5.888;2023-03-01T08:11:07;10.13;;;8.02;;
32319;SDS011;19080;51.750;5.888;2023-03-01T08:13:42;12.45;;;6.75;;
32319;SDS011;19080;51.750;5.888;2023-03-01T08:16:13;9.07;;;7.32;;
32319;SDS011;19080;51.750;5.888;2023-03-01T08:18:41;8.60;;;6.78;;
32319;SDS011;19080;51.750;5.888;2023-03-01T08:21:10;8.27;;;7.03;;
32319;SDS011;19080;51.750;5.888;2023-03-01T08:23:39;10.63;;;7.25;;
32319;SDS011;19080;51.750;5.888;2023-03-01T08:26:15;9.02;;;6.13;;
32319;SDS011;19080;51.750;5.888;2023-03-01T08:28:43;8.35;;;6.15;;
32319;SDS011;19080;51.750;5.888;2023-03-01T08:31:17;10.55;;;6.47;;
32319;SDS011;19080;51.750;5.888;2023-03-01T08:33:59;8.25;;;6.53;;
32319;SDS011;19080;51.750;5.888;2023-03-01T08:36:28;8.32;;;6.63;;
32319;SDS011;19080;51.750;5.888;2023-03-01T08:38:57;9.80;;;7.07;;
32319;SDS011;19080;51.750;5.888;2023-03-01T08:41:24;9.85;;;6.95;;
32319;SDS011;19080;51.750;5.888;2023-03-01T08:43:51;15.35;;;8.10;;
32319;SDS011;19080;51.750;5.888;2023-03-01T08:46:19;8.57;;;6.45;;
32319;SDS011;19080;51.750;5.888;2023-03-01T08:48:45;9.48;;;6.82;;
32319;SDS011;19080;51.750;5.888;2023-03-01T08:51:16;6.43;;;5.55;;
32319;SDS011;19080;51.750;5.888;2023-03-01T08:53:44;9.18;;;6.10;;
32319;SDS011;19080;51.750;5.888;2023-03-01T08:56:11;9.85;;;6.45;;
32319;SDS011;19080;51.750;5.888;2023-03-01T08:58:38;11.52;;;6.03;;
32319;SDS011;19080;51.750;5.888;2023-03-01T09:01:06;8.60;;;6.75;;
32319;SDS011;19080;51.750;5.888;2023-03-01T09:03:34;9.80;;;7.05;;
32319;SDS011;19080;51.750;5.888;2023-03-01T09:06:01;12.88;;;8.98;;
32319;SDS011;19080;51.750;5.888;2023-03-01T09:08:29;15.23;;;10.73;;
32319;SDS011;19080;51.750;5.888;2023-03-01T09:10:56;13.68;;;9.73;;
32319;SDS011;19080;51.750;5.888;2023-03-01T09:13:23;14.00;;;9.52;;
32319;SDS011;19080;51.750;5.888;2023-03-01T09:15:53;12.20;;;8.63;;
32319;SDS011;19080;51.750;5.888;2023-03-01T09:18:19;9.40;;;7.57;;
32319;SDS011;19080;51.750;5.888;2023-03-01T09:20:46;10.40;;;6.32;;
32319;SDS011;19080;51.750;5.888;2023-03-01T09:23:12;8.25;;;6.28;;
32319;SDS011;19080;51.750;5.888;2023-03-01T09:25:39;10.23;;;6.30;;
32319;SDS011;19080;51.750;5.888;2023-03-01T09:28:06;8.63;;;6.40;;
32319;SDS011;19080;51.750;5.888;2023-03-01T09:30:32;8.80;;;6.30;;
32319;SDS011;19080;51.750;5.888;2023-03-01T09:32:59;8.27;;;6.60;;
32319;SDS011;19080;51.750;5.888;2023-03-01T09:35:25;7.45;;;5.57;;
32319;SDS011;19080;51.750;5.888;2023-03-01T09:37:52;8.60;;;5.35;;
32319;SDS011;19080;51.750;5.888;2023-03-01T09:40:20;9.48;;;6.03;;
32319;SDS011;19080;51.750;5.888;2023-03-01T09:42:57;9.35;;;6.00;;
32319;SDS011;19080;51.750;5.888;2023-03-01T09:48:04;7.63;;;5.60;;
32319;SDS011;19080;51.750;5.888;2023-03-01T09:50:39;9.77;;;5.78;;
32319;SDS011;19080;51.750;5.888;2023-03-01T09:53:10;11.55;;;7.30;;
32319;SDS011;19080;51.750;5.888;2023-03-01T09:55:45;8.15;;;6.10;;
32319;SDS011;19080;51.750;5.888;2023-03-01T10:01:23;9.00;;;5.80;;
32319;SDS011;19080;51.750;5.888;2023-03-01T10:04:04;7.15;;;5.40;;
32319;SDS011;19080;51.750;5.888;2023-03-01T10:06:55;7.10;;;5.88;;
32319;SDS011;19080;51.750;5.888;2023-03-01T10:09:43;8.90;;;5.25;;
32319;SDS011;19080;51.750;5.888;2023-03-01T10:12:16;9.00;;;4.75;;
32319;SDS011;19080;51.750;5.888;2023-03-01T10:15:10;5.70;;;5.10;;
32319;SDS011;19080;51.750;5.888;2023-03-01T10:17:50;6.47;;;4.80;;
32319;SDS011;19080;51.750;5.888;2023-03-01T10:22:50;6.22;;;4.43;;
32319;SDS011;19080;51.750;5.888;2023-03-01T10:25:30;6.00;;;4.28;;
32319;SDS011;19080;51.750;5.888;2023-03-01T10:28:20;5.57;;;4.78;;
32319;SDS011;19080;51.750;5.888;2023-03-01T10:30:56;6.25;;;4.40;;
32319;SDS011;19080;51.750;5.888;2023-03-01T10:33:26;6.60;;;5.10;;
32319;SDS011;19080;51.750;5.888;2023-03-01T10:35:55;8.18;;;4.82;;
32319;SDS011;19080;51.750;5.888;2023-03-01T10:38:21;7.95;;;4.70;;
32319;SDS011;19080;51.750;5.888;2023-03-01T10:40:59;7.45;;;5.13;;
32319;SDS011;19080;51.750;5.888;2023-03-01T10:43:55;6.45;;;4.55;;
32319;SDS011;19080;51.750;5.888;2023-03-01T10:51:50;8.63;;;5.32;;
32319;SDS011;19080;51.750;5.888;2023-03-01T10:54:29;6.10;;;5.05;;
32319;SDS011;19080;51.750;5.888;2023-03-01T10:57:01;6.80;;;5.30;;
32319;SDS011;19080;51.750;5.888;2023-03-01T10:59:37;6.65;;;5.00;;
32319;SDS011;19080;51.750;5.888;2023-03-01T11:02:15;6.28;;;4.90;;
32319;SDS011;19080;51.750;5.888;2023-03-01T11:10:29;6.78;;;5.30;;
32319;SDS011;19080;51.750;5.888;2023-03-01T11:13:14;5.72;;;4.45;;
32319;SDS011;19080;51.750;5.888;2023-03-01T11:15:43;6.22;;;4.72;;
32319;SDS011;19080;51.750;5.888;2023-03-01T11:18:25;7.38;;;5.15;;
32319;SDS011;19080;51.750;5.888;2023-03-01T11:21:11;6.28;;;5.00;;
32319;SDS011;19080;51.750;5.888;2023-03-01T11:23:38;5.82;;;4.85;;
32319;SDS011;19080;51.750;5.888;2023-03-01T11:26:07;8.40;;;5.38;;
32319;SDS011;19080;51.750;5.888;2023-03-01T11:28:38;8.00;;;5.40;;
32319;SDS011;19080;51.750;5.888;2023-03-01T11:31:08;5.80;;;4.90;;
32319;SDS011;19080;51.750;5.888;2023-03-01T11:33:48;7.63;;;5.15;;
32319;SDS011;19080;51.750;5.888;2023-03-01T11:41:48;5.55;;;4.85;;
32319;SDS011;19080;51.750;5.888;2023-03-01T11:44:20;5.97;;;5.30;;
32319;SDS011;19080;51.750;5.888;2023-03-01T11:47:07;6.65;;;5.18;;
32319;SDS011;19080;51.750;5.888;2023-03-01T11:55:24;6.85;;;5.80;;
32319;SDS011;19080;51.750;5.888;2023-03-01T12:03:11;7.07;;;5.63;;
32319;SDS011;19080;51.750;5.888;2023-03-01T12:05:49;6.55;;;5.50;;
32319;SDS011;19080;51.750;5.888;2023-03-01T12:08:38;5.90;;;5.18;;
32319;SDS011;19080;51.750;5.888;2023-03-01T12:27:45;6.80;;;4.97;;
32319;SDS011;19080;51.750;5.888;2023-03-01T12:30:21;6.05;;;5.03;;
32319;SDS011;19080;51.750;5.888;2023-03-01T12:38:48;14.52;;;10.30;;
32319;SDS011;19080;51.750;5.888;2023-03-01T12:44:15;6.38;;;5.72;;
32319;SDS011;19080;51.750;5.888;2023-03-01T12:47:25;6.82;;;5.43;;
32319;SDS011;19080;51.750;5.888;2023-03-01T12:50:11;7.13;;;5.65;;
32319;SDS011;19080;51.750;5.888;2023-03-01T12:52:47;6.07;;;5.47;;
32319;SDS011;19080;51.750;5.888;2023-03-01T12:55:32;6.53;;;5.93;;
32319;SDS011;19080;51.750;5.888;2023-03-01T13:01:25;7.10;;;5.60;;
32319;SDS011;19080;51.750;5.888;2023-03-01T13:06:47;7.40;;;5.55;;
32319;SDS011;19080;51.750;5.888;2023-03-01T13:09:23;6.70;;;5.28;;
32319;SDS011;19080;51.750;5.888;2023-03-01T13:12:01;8.55;;;6.50;;
32319;SDS011;19080;51.750;5.888;2023-03-01T13:14:34;8.23;;;5.95;;
32319;SDS011;19080;51.750;5.888;2023-03-01T13:17:02;6.70;;;6.00;;
32319;SDS011;19080;51.750;5.888;2023-03-01T13:19:29;9.10;;;6.10;;
32319;SDS011;19080;51.750;5.888;2023-03-01T13:21:57;8.68;;;6.88;;
32319;SDS011;19080;51.750;5.888;2023-03-01T13:24:33;8.60;;;6.40;;
32319;SDS011;19080;51.750;5.888;2023-03-01T13:37:46;8.00;;;6.32;;
32319;SDS011;19080;51.750;5.888;2023-03-01T13:51:13;7.85;;;5.97;;
32319;SDS011;19080;51.750;5.888;2023-03-01T13:53:42;9.68;;;5.72;;
32319;SDS011;19080;51.750;5.888;2023-03-01T13:56:12;9.27;;;6.65;;
32319;SDS011;19080;51.750;5.888;2023-03-01T13:58:52;8.13;;;6.38;;
32319;SDS011;19080;51.750;5.888;2023-03-01T14:01:30;8.05;;;6.60;;
32319;SDS011;19080;51.750;5.888;2023-03-01T14:04:02;8.90;;;6.57;;
32319;SDS011;19080;51.750;5.888;2023-03-01T14:06:31;8.00;;;5.63;;
32319;SDS011;19080;51.750;5.888;2023-03-01T14:09:08;10.60;;;6.67;;
32319;SDS011;19080;51.750;5.888;2023-03-01T14:20:30;9.93;;;7.00;;
32319;SDS011;19080;51.750;5.888;2023-03-01T14:22:59;8.82;;;6.72;;
32319;SDS011;19080;51.750;5.888;2023-03-01T14:25:32;9.02;;;6.55;;
32319;SDS011;19080;51.750;5.888;2023-03-01T14:30:48;9.45;;;7.00;;
32319;SDS011;19080;51.750;5.888;2023-03-01T14:33:20;8.73;;;6.95;;
32319;SDS011;19080;51.750;5.888;2023-03-01T14:36:00;12.52;;;7.45;;
32319;SDS011;19080;51.750;5.888;2023-03-01T14:38:35;9.60;;;6.38;;
32319;SDS011;19080;51.750;5.888;2023-03-01T14:41:10;8.75;;;6.50;;
32319;SDS011;19080;51.750;5.888;2023-03-01T14:43:43;7.47;;;6.13;;
32319;SDS011;19080;51.750;5.888;2023-03-01T14:48:52;7.85;;;6.30;;
32319;SDS011;19080;51.750;5.888;2023-03-01T14:51:22;9.85;;;6.85;;
32319;SDS011;19080;51.750;5.888;2023-03-01T14:53:49;7.90;;;6.13;;
32319;SDS011;19080;51.750;5.888;2023-03-01T14:56:17;7.43;;;6.22;;
32319;SDS011;19080;51.750;5.888;2023-03-01T14:58:45;8.43;;;6.43;;
32319;SDS011;19080;51.750;5.888;2023-03-01T15:01:15;6.93;;;6.20;;
32319;SDS011;19080;51.750;5.888;2023-03-01T15:03:47;9.80;;;5.88;;
32319;SDS011;19080;51.750;5.888;2023-03-01T15:06:19;8.30;;;5.93;;
32319;SDS011;19080;51.750;5.888;2023-03-01T15:08:49;8.13;;;6.07;;
32319;SDS011;19080;51.750;5.888;2023-03-01T15:11:22;7.78;;;5.50;;
32319;SDS011;19080;51.750;5.888;2023-03-01T15:13:59;6.88;;;5.72;;
32319;SDS011;19080;51.750;5.888;2023-03-01T15:16:26;7.00;;;5.80;;
32319;SDS011;19080;51.750;5.888;2023-03-01T15:18:58;10.27;;;7.22;;
32319;SDS011;19080;51.750;5.888;2023-03-01T15:21:31;10.63;;;7.00;;
32319;SDS011;19080;51.750;5.888;2023-03-01T15:24:08;7.43;;;5.93;;
32319;SDS011;19080;51.750;5.888;2023-03-01T15:26:56;7.65;;;5.75;;
32319;SDS011;19080;51.750;5.888;2023-03-01T15:29:29;7.22;;;5.78;;
32319;SDS011;19080;51.750;5.888;2023-03-01T15:32:00;8.93;;;5.78;;
32319;SDS011;19080;51.750;5.888;2023-03-01T15:36:59;7.53;;;5.85;;
32319;SDS011;19080;51.750;5.888;2023-03-01T15:45:10;8.35;;;5.70;;
32319;SDS011;19080;51.750;5.888;2023-03-01T15:50:25;7.25;;;6.07;;
32319;SDS011;19080;51.750;5.888;2023-03-01T15:53:00;7.95;;;5.70;;
32319;SDS011;19080;51.750;5.888;2023-03-01T15:55:30;9.55;;;5.85;;
32319;SDS011;19080;51.750;5.888;2023-03-01T15:58:03;8.32;;;5.95;;
32319;SDS011;19080;51.750;5.888;2023-03-01T16:00:36;9.35;;;5.88;;
32319;SDS011;19080;51.750;5.888;2023-03-01T16:03:12;6.28;;;4.90;;
32319;SDS011;19080;51.750;5.888;2023-03-01T16:05:38;7.63;;;5.90;;
32319;SDS011;19080;51.750;5.888;2023-03-01T16:08:06;7.90;;;5.80;;
32319;SDS011;19080;51.750;5.888;2023-03-01T16:10:33;7.43;;;5.93;;
32319;SDS011;19080;51.750;5.888;2023-03-01T16:13:00;7.82;;;5.47;;
32319;SDS011;19080;51.750;5.888;2023-03-01T16:15:31;8.93;;;5.80;;
32319;SDS011;19080;51.750;5.888;2023-03-01T16:18:00;7.80;;;5.50;;
32319;SDS011;19080;51.750;5.888;2023-03-01T16:20:27;8.07;;;5.82;;
32319;SDS011;19080;51.750;5.888;2023-03-01T16:22:59;8.30;;;5.33;;
32319;SDS011;19080;51.750;5.888;2023-03-01T16:25:27;6.70;;;5.50;;
32319;SDS011;19080;51.750;5.888;2023-03-01T16:27:54;8.05;;;5.22;;
32319;SDS011;19080;51.750;5.888;2023-03-01T16:30:22;7.40;;;5.38;;
32319;SDS011;19080;51.750;5.888;2023-03-01T16:32:50;6.60;;;5.25;;
32319;SDS011;19080;51.750;5.888;2023-03-01T16:35:17;5.75;;;4.75;;
32319;SDS011;19080;51.750;5.888;2023-03-01T16:37:45;7.82;;;5.47;;
32319;SDS011;19080;51.750;5.888;2023-03-01T16:40:19;6.80;;;4.72;;
32319;SDS011;19080;51.750;5.888;2023-03-01T16:42:48;6.05;;;4.47;;
32319;SDS011;19080;51.750;5.888;2023-03-01T16:45:16;6.57;;;4.70;;
32319;SDS011;19080;51.750;5.888;2023-03-01T16:47:50;7.35;;;5.20;;
32319;SDS011;19080;51.750;5.888;2023-03-01T16:50:20;8.00;;;5.10;;
32319;SDS011;19080;51.750;5.888;2023-03-01T16:52:46;8.02;;;5.22;;
32319;SDS011;19080;51.750;5.888;2023-03-01T16:55:13;7.35;;;5.25;;
32319;SDS011;19080;51.750;5.888;2023-03-01T16:57:40;7.32;;;4.63;;
32319;SDS011;19080;51.750;5.888;2023-03-01T17:00:07;9.68;;;5.20;;
32319;SDS011;19080;51.750;5.888;2023-03-01T17:02:37;7.00;;;4.20;;
32319;SDS011;19080;51.750;5.888;2023-03-01T17:05:04;8.77;;;4.97;;
32319;SDS011;19080;51.750;5.888;2023-03-01T17:07:31;5.88;;;4.65;;
32319;SDS011;19080;51.750;5.888;2023-03-01T17:10:03;6.43;;;4.55;;
32319;SDS011;19080;51.750;5.888;2023-03-01T17:12:30;6.97;;;4.57;;
32319;SDS011;19080;51.750;5.888;2023-03-01T17:14:58;11.77;;;5.28;;